»·PEaware :: UAL3227 KPDX-KSEA

UAL3227 :: KPDX-KSEA

FLIGHT INFORMATION

Flight Status: Arrived
Operator:
United Airlines
More flights by this operator :: More flights under this callsign
Pilot: Anonymous 18910 (18910)
Aircraft: AIRBUS A319
(A319)
More flights by this aircraft type
Origin: KPDX Portland Intl
United States
Destination: KSEA Seattle-Tacoma Intl
United States
More flights between these airports :: More routes between these airports
Route: +PTLD1 BTG COUGA KRIEG HAWKZ6
File this flight plan on PilotEdge
Remarks:
Altitude:
(Current/Filed)
14,000ft
Speed:
(Current/Filed)
300kts
Departed: 10-Jul-18 07:05 PM
Arrived: 10-Jul-18 07:33 PM
Distance/Time
Traveled:
112nm/0:28
Distance/Time
To Go:
Arrived

Flight Plot

Page will automatically refresh every two minutes.

Flight plan parsing failed; only flown route is shown


Map Options




Map Legend


Flown Route
Filed Route
Departure Airport
Arrival Airport
Navaid (VOR, NDB)
Fix

Horizontal Profiles

Position Reports

Time Latitude Longitude Heading Altitude Ground
Speed
10-Jul-18 18:49 45.590039 -122.591052 209 28ft 0kts
10-Jul-18 18:50 45.590039 -122.591052 209 28ft 0kts
10-Jul-18 18:51 45.590039 -122.591052 209 28ft 0kts
10-Jul-18 18:52 45.590039 -122.591052 209 28ft 0kts
10-Jul-18 18:53 45.590039 -122.591052 209 28ft 0kts
10-Jul-18 18:54 45.590039 -122.591052 209 28ft 0kts
10-Jul-18 18:55 45.590039 -122.591052 209 28ft 0kts
10-Jul-18 18:56 45.590068 -122.591040 208 28ft 0kts
10-Jul-18 18:57 45.590067 -122.591040 208 28ft 0kts
10-Jul-18 18:58 45.590070 -122.591040 208 28ft 0kts
10-Jul-18 18:59 45.590122 -122.590998 206 28ft 0kts
10-Jul-18 19:00 45.590521 -122.590958 147 28ft 5kts
10-Jul-18 19:01 45.590496 -122.590608 109 28ft 5kts
10-Jul-18 19:02 45.589502 -122.587278 88 27ft 16kts
10-Jul-18 19:03 45.587222 -122.579515 124 23ft 25kts
10-Jul-18 19:04 45.584298 -122.572054 118 27ft 20kts
10-Jul-18 19:05 45.582752 -122.567386 57 28ft 0kts
10-Jul-18 19:06 45.586342 -122.573916 298 27ft 100kts
10-Jul-18 19:07 45.607625 -122.628698 298 2015ft 176kts
10-Jul-18 19:08 45.631921 -122.694127 298 4609ft 212kts
10-Jul-18 19:09 45.684878 -122.718523 7 7634ft 247kts
10-Jul-18 19:10 45.755301 -122.709445 355 10613ft 267kts
10-Jul-18 19:11 45.839334 -122.704976 0 12106ft 344kts
10-Jul-18 19:12 45.944528 -122.693966 1 13561ft 408kts
10-Jul-18 19:13 46.056815 -122.681724 0 14026ft 410kts
10-Jul-18 19:14 46.164108 -122.691660 349 14020ft 406kts
10-Jul-18 19:15 46.272399 -122.713157 349 14038ft 406kts
10-Jul-18 19:16 46.353331 -122.723877 355 14039ft 408kts
10-Jul-18 19:17 46.465346 -122.727770 355 14039ft 408kts
10-Jul-18 19:18 46.577139 -122.731783 355 14053ft 408kts
10-Jul-18 19:19 46.686486 -122.735804 355 13079ft 382kts
10-Jul-18 19:20 46.781446 -122.729948 15 12772ft 324kts
10-Jul-18 19:21 46.852938 -122.657903 39 11712ft 302kts
10-Jul-18 19:22 46.910615 -122.577466 40 10476ft 288kts
10-Jul-18 19:23 46.964976 -122.495438 43 9094ft 281kts
10-Jul-18 19:24 47.026539 -122.431595 27 7987ft 273kts
10-Jul-18 19:25 47.091420 -122.376830 27 7082ft 265kts
10-Jul-18 19:26 47.145764 -122.343001 9 6296ft 217kts
10-Jul-18 19:27 47.200115 -122.327549 13 4989ft 207kts
10-Jul-18 19:28 47.245756 -122.313579 1 4142ft 168kts
10-Jul-18 19:29 47.285191 -122.312444 359 3400ft 140kts
10-Jul-18 19:30 47.318104 -122.312063 359 2792ft 139kts
10-Jul-18 19:31 47.354573 -122.311795 359 2110ft 138kts
10-Jul-18 19:32 47.388886 -122.311557 359 1439ft 130kts
10-Jul-18 19:33 47.424635 -122.311340 359 724ft 129kts
10-Jul-18 19:34 47.452418 -122.311071 6 442ft 33kts
10-Jul-18 19:35 47.453970 -122.310030 31 442ft 1kts
10-Jul-18 19:36 47.454060 -122.309754 105 442ft 5kts
10-Jul-18 19:37 47.450908 -122.306235 180 442ft 20kts
10-Jul-18 19:38 47.444301 -122.306312 180 442ft 26kts
10-Jul-18 19:39 47.439947 -122.306273 110 442ft 4kts
10-Jul-18 19:40 47.440532 -122.301093 87 442ft 10kts
10-Jul-18 19:41 47.440940 -122.300262 45 442ft 0kts

Navigation Log

Ident Type
Flight plan parsing failed, navigation log unavailable